sensor_id;sensor_type;location;lat;lon;timestamp;temperature;humidity
32502;DHT22;18952;52.516;13.460;2023-03-07T00:01:55;-0.40;99.90
32502;DHT22;18952;52.516;13.460;2023-03-07T00:04:22;-0.30;99.90
32502;DHT22;18952;52.516;13.460;2023-03-07T00:06:49;-0.30;99.90
32502;DHT22;18952;52.516;13.460;2023-03-07T00:09:18;-0.30;99.90
32502;DHT22;18952;52.516;13.460;2023-03-07T00:11:45;-0.40;99.90
32502;DHT22;18952;52.516;13.460;2023-03-07T00:14:12;-0.40;99.90
32502;DHT22;18952;52.516;13.460;2023-03-07T00:16:39;-0.30;99.90
32502;DHT22;18952;52.516;13.460;2023-03-07T00:19:06;-0.30;99.90
32502;DHT22;18952;52.516;13.460;2023-03-07T00:21:33;-0.30;99.90
32502;DHT22;18952;52.516;13.460;2023-03-07T00:24:00;-0.30;99.90
32502;DHT22;18952;52.516;13.460;2023-03-07T00:26:27;-0.30;99.90
32502;DHT22;18952;52.516;13.460;2023-03-07T00:28:57;-0.40;99.90
32502;DHT22;18952;52.516;13.460;2023-03-07T00:31:24;-0.40;99.90
32502;DHT22;18952;52.516;13.460;2023-03-07T00:33:51;-0.50;99.90
32502;DHT22;18952;52.516;13.460;2023-03-07T00:36:20;-0.40;99.90
32502;DHT22;18952;52.516;13.460;2023-03-07T00:38:47;-0.40;99.90
32502;DHT22;18952;52.516;13.460;2023-03-07T00:41:16;-0.30;99.90
32502;DHT22;18952;52.516;13.460;2023-03-07T00:43:44;-0.30;99.90
32502;DHT22;18952;52.516;13.460;2023-03-07T00:46:10;-0.30;99.90
32502;DHT22;18952;52.516;13.460;2023-03-07T00:48:38;-0.30;99.90
32502;DHT22;18952;52.516;13.460;2023-03-07T00:51:08;-0.30;99.90
32502;DHT22;18952;52.516;13.460;2023-03-07T00:53:35;-0.40;99.90
32502;DHT22;18952;52.516;13.460;2023-03-07T00:56:05;-0.40;99.90
32502;DHT22;18952;52.516;13.460;2023-03-07T00:58:35;-0.40;99.90
32502;DHT22;18952;52.516;13.460;2023-03-07T01:01:03;-0.40;99.90
32502;DHT22;18952;52.516;13.460;2023-03-07T01:03:31;-0.40;99.90
32502;DHT22;18952;52.516;13.460;2023-03-07T01:06:02;-0.40;99.90
32502;DHT22;18952;52.516;13.460;2023-03-07T01:08:32;-0.30;99.90
32502;DHT22;18952;52.516;13.460;2023-03-07T01:11:01;-0.30;99.90
32502;DHT22;18952;52.516;13.460;2023-03-07T01:13:28;-0.20;99.90
32502;DHT22;18952;52.516;13.460;2023-03-07T01:16:05;-0.20;99.90
32502;DHT22;18952;52.516;13.460;2023-03-07T01:18:32;-0.30;99.90
32502;DHT22;18952;52.516;13.460;2023-03-07T01:20:58;-0.30;99.90
32502;DHT22;18952;52.516;13.460;2023-03-07T01:23:25;-0.20;99.90
32502;DHT22;18952;52.516;13.460;2023-03-07T01:25:52;-0.20;99.90
32502;DHT22;18952;52.516;13.460;2023-03-07T01:28:19;-0.20;99.90
32502;DHT22;18952;52.516;13.460;2023-03-07T01:30:56;-0.30;99.90
32502;DHT22;18952;52.516;13.460;2023-03-07T01:33:23;-0.30;99.90
32502;DHT22;18952;52.516;13.460;2023-03-07T01:35:50;-0.30;99.90
32502;DHT22;18952;52.516;13.460;2023-03-07T01:38:17;-0.40;99.90
32502;DHT22;18952;52.516;13.460;2023-03-07T01:40:44;-0.50;99.90
32502;DHT22;18952;52.516;13.460;2023-03-07T01:48:40;-0.40;99.90
32502;DHT22;18952;52.516;13.460;2023-03-07T01:51:07;-0.40;99.90
32502;DHT22;18952;52.516;13.460;2023-03-07T01:53:34;-0.40;99.90
32502;DHT22;18952;52.516;13.460;2023-03-07T01:56:01;-0.40;99.90
32502;DHT22;18952;52.516;13.460;2023-03-07T01:58:28;-0.30;99.90
32502;DHT22;18952;52.516;13.460;2023-03-07T02:00:55;-0.20;99.90
32502;DHT22;18952;52.516;13.460;2023-03-07T02:03:32;-0.20;99.90
32502;DHT22;18952;52.516;13.460;2023-03-07T02:06:04;-0.20;99.90
32502;DHT22;18952;52.516;13.460;2023-03-07T02:08:34;-0.10;99.90
32502;DHT22;18952;52.516;13.460;2023-03-07T02:11:02;-0.10;99.90
32502;DHT22;18952;52.516;13.460;2023-03-07T02:13:30;-0.10;99.90
32502;DHT22;18952;52.516;13.460;2023-03-07T02:15:59;-0.10;99.90
32502;DHT22;18952;52.516;13.460;2023-03-07T02:18:30;-0.10;99.90
32502;DHT22;18952;52.516;13.460;2023-03-07T02:27:06;-0.10;99.90
32502;DHT22;18952;52.516;13.460;2023-03-07T02:29:32;-0.10;99.90
32502;DHT22;18952;52.516;13.460;2023-03-07T02:31:59;-0.10;99.90
32502;DHT22;18952;52.516;13.460;2023-03-07T02:34:28;-0.10;99.90
32502;DHT22;18952;52.516;13.460;2023-03-07T02:37:00;0.00;99.90
32502;DHT22;18952;52.516;13.460;2023-03-07T02:39:28;0.00;99.90
32502;DHT22;18952;52.516;13.460;2023-03-07T02:41:57;0.00;99.90
32502;DHT22;18952;52.516;13.460;2023-03-07T02:44:26;0.10;99.90
32502;DHT22;18952;52.516;13.460;2023-03-07T02:46:52;0.10;99.90
32502;DHT22;18952;52.516;13.460;2023-03-07T02:49:19;0.10;99.90
32502;DHT22;18952;52.516;13.460;2023-03-07T02:51:46;0.20;99.90
32502;DHT22;18952;52.516;13.460;2023-03-07T02:54:13;0.20;99.90
32502;DHT22;18952;52.516;13.460;2023-03-07T02:56:41;0.20;99.90
32502;DHT22;18952;52.516;13.460;2023-03-07T02:59:08;0.20;99.90
32502;DHT22;18952;52.516;13.460;2023-03-07T03:01:35;0.20;99.90
32502;DHT22;18952;52.516;13.460;2023-03-07T03:04:02;0.30;99.90
32502;DHT22;18952;52.516;13.460;2023-03-07T03:06:28;0.30;99.90
32502;DHT22;18952;52.516;13.460;2023-03-07T03:08:55;0.30;99.90
32502;DHT22;18952;52.516;13.460;2023-03-07T03:11:22;0.30;99.90
32502;DHT22;18952;52.516;13.460;2023-03-07T03:13:49;0.30;99.90
32502;DHT22;18952;52.516;13.460;2023-03-07T03:16:15;0.30;99.90
32502;DHT22;18952;52.516;13.460;2023-03-07T03:18:42;0.30;99.90
32502;DHT22;18952;52.516;13.460;2023-03-07T03:21:10;0.30;99.90
32502;DHT22;18952;52.516;13.460;2023-03-07T03:23:37;0.40;99.90
32502;DHT22;18952;52.516;13.460;2023-03-07T03:26:06;0.30;99.90
32502;DHT22;18952;52.516;13.460;2023-03-07T03:28:34;0.40;99.90
32502;DHT22;18952;52.516;13.460;2023-03-07T03:31:04;0.40;99.90
32502;DHT22;18952;52.516;13.460;2023-03-07T03:33:32;0.40;99.90
32502;DHT22;18952;52.516;13.460;2023-03-07T03:36:05;0.40;99.90
32502;DHT22;18952;52.516;13.460;2023-03-07T03:38:35;0.40;99.90
32502;DHT22;18952;52.516;13.460;2023-03-07T03:41:06;0.40;99.90
32502;DHT22;18952;52.516;13.460;2023-03-07T03:43:34;0.30;99.90
32502;DHT22;18952;52.516;13.460;2023-03-07T03:46:01;0.30;99.90
32502;DHT22;18952;52.516;13.460;2023-03-07T03:48:29;0.30;99.90
32502;DHT22;18952;52.516;13.460;2023-03-07T03:51:03;0.30;99.90
32502;DHT22;18952;52.516;13.460;2023-03-07T03:53:32;0.30;99.90
32502;DHT22;18952;52.516;13.460;2023-03-07T03:56:14;0.30;99.90
32502;DHT22;18952;52.516;13.460;2023-03-07T03:58:41;0.30;99.90
32502;DHT22;18952;52.516;13.460;2023-03-07T04:01:10;0.30;99.90
32502;DHT22;18952;52.516;13.460;2023-03-07T04:03:48;0.30;99.90
32502;DHT22;18952;52.516;13.460;2023-03-07T04:06:21;0.30;99.90
32502;DHT22;18952;52.516;13.460;2023-03-07T04:08:50;0.30;99.90
32502;DHT22;18952;52.516;13.460;2023-03-07T04:11:18;0.30;99.90
32502;DHT22;18952;52.516;13.460;2023-03-07T04:13:45;0.40;99.90
32502;DHT22;18952;52.516;13.460;2023-03-07T04:16:12;0.40;99.90
32502;DHT22;18952;52.516;13.460;2023-03-07T04:18:39;0.40;99.90
32502;DHT22;18952;52.516;13.460;2023-03-07T04:21:06;0.40;99.90
32502;DHT22;18952;52.516;13.460;2023-03-07T04:23:33;0.50;99.90
32502;DHT22;18952;52.516;13.460;2023-03-07T04:26:02;0.40;99.90
32502;DHT22;18952;52.516;13.460;2023-03-07T04:28:38;0.50;99.90
32502;DHT22;18952;52.516;13.460;2023-03-07T04:31:05;0.50;99.90
32502;DHT22;18952;52.516;13.460;2023-03-07T04:33:32;0.50;99.90
32502;DHT22;18952;52.516;13.460;2023-03-07T04:35:59;0.50;99.90
32502;DHT22;18952;52.516;13.460;2023-03-07T04:38:26;0.50;99.90
32502;DHT22;18952;52.516;13.460;2023-03-07T04:40:53;0.60;99.90
32502;DHT22;18952;52.516;13.460;2023-03-07T04:43:19;0.60;99.90
32502;DHT22;18952;52.516;13.460;2023-03-07T04:45:46;0.60;99.90
32502;DHT22;18952;52.516;13.460;2023-03-07T04:48:13;0.60;99.90
32502;DHT22;18952;52.516;13.460;2023-03-07T04:50:40;0.60;99.90
32502;DHT22;18952;52.516;13.460;2023-03-07T04:53:07;0.60;99.90
32502;DHT22;18952;52.516;13.460;2023-03-07T04:55:34;0.60;99.90
32502;DHT22;18952;52.516;13.460;2023-03-07T04:58:01;0.50;99.90
32502;DHT22;18952;52.516;13.460;2023-03-07T05:00:27;0.60;99.90
32502;DHT22;18952;52.516;13.460;2023-03-07T05:02:57;0.50;99.90
32502;DHT22;18952;52.516;13.460;2023-03-07T05:05:24;0.50;99.90
32502;DHT22;18952;52.516;13.460;2023-03-07T05:07:51;0.40;99.90
32502;DHT22;18952;52.516;13.460;2023-03-07T05:10:17;0.30;99.90
32502;DHT22;18952;52.516;13.460;2023-03-07T05:12:44;0.20;99.90
32502;DHT22;18952;52.516;13.460;2023-03-07T05:15:11;0.20;99.90
32502;DHT22;18952;52.516;13.460;2023-03-07T05:17:38;0.20;99.90
32502;DHT22;18952;52.516;13.460;2023-03-07T05:20:06;0.20;99.90
32502;DHT22;18952;52.516;13.460;2023-03-07T05:22:36;0.10;99.90
32502;DHT22;18952;52.516;13.460;2023-03-07T05:25:03;0.10;99.90
32502;DHT22;18952;52.516;13.460;2023-03-07T05:27:30;0.10;99.90
32502;DHT22;18952;52.516;13.460;2023-03-07T05:29:56;0.10;99.90
32502;DHT22;18952;52.516;13.460;2023-03-07T05:32:23;0.10;99.90
32502;DHT22;18952;52.516;13.460;2023-03-07T05:34:53;0.10;99.90
32502;DHT22;18952;52.516;13.460;2023-03-07T05:37:20;0.10;99.90
32502;DHT22;18952;52.516;13.460;2023-03-07T05:39:46;0.10;99.90
32502;DHT22;18952;52.516;13.460;2023-03-07T05:42:13;0.10;99.90
32502;DHT22;18952;52.516;13.460;2023-03-07T05:44:41;0.10;99.90
32502;DHT22;18952;52.516;13.460;2023-03-07T05:47:08;0.10;99.90
32502;DHT22;18952;52.516;13.460;2023-03-07T05:49:34;0.10;99.90
32502;DHT22;18952;52.516;13.460;2023-03-07T05:52:01;0.10;99.90
32502;DHT22;18952;52.516;13.460;2023-03-07T05:54:28;0.10;99.90
32502;DHT22;18952;52.516;13.460;2023-03-07T05:56:55;0.20;99.90
32502;DHT22;18952;52.516;13.460;2023-03-07T05:59:22;0.20;99.90
32502;DHT22;18952;52.516;13.460;2023-03-07T06:01:48;0.10;99.90
32502;DHT22;18952;52.516;13.460;2023-03-07T06:04:15;0.10;99.90
32502;DHT22;18952;52.516;13.460;2023-03-07T06:06:42;0.20;99.90
32502;DHT22;18952;52.516;13.460;2023-03-07T06:09:08;0.20;99.90
32502;DHT22;18952;52.516;13.460;2023-03-07T06:11:35;0.20;99.90
32502;DHT22;18952;52.516;13.460;2023-03-07T06:14:02;0.20;99.90
32502;DHT22;18952;52.516;13.460;2023-03-07T06:16:29;0.20;99.90
32502;DHT22;18952;52.516;13.460;2023-03-07T06:18:56;0.30;99.90
32502;DHT22;18952;52.516;13.460;2023-03-07T06:21:23;0.30;99.90
32502;DHT22;18952;52.516;13.460;2023-03-07T06:23:49;0.30;99.90
32502;DHT22;18952;52.516;13.460;2023-03-07T06:26:16;0.30;99.90
32502;DHT22;18952;52.516;13.460;2023-03-07T06:28:43;0.40;99.90
32502;DHT22;18952;52.516;13.460;2023-03-07T06:31:12;0.40;99.90
32502;DHT22;18952;52.516;13.460;2023-03-07T06:33:40;0.40;99.90
32502;DHT22;18952;52.516;13.460;2023-03-07T06:36:15;0.40;99.90
32502;DHT22;18952;52.516;13.460;2023-03-07T06:38:42;0.50;99.90
32502;DHT22;18952;52.516;13.460;2023-03-07T06:41:10;0.50;99.90
32502;DHT22;18952;52.516;13.460;2023-03-07T06:43:37;0.50;99.90
32502;DHT22;18952;52.516;13.460;2023-03-07T06:46:05;0.50;99.90
32502;DHT22;18952;52.516;13.460;2023-03-07T06:48:32;0.50;99.90
32502;DHT22;18952;52.516;13.460;2023-03-07T06:51:09;0.60;99.90
32502;DHT22;18952;52.516;13.460;2023-03-07T06:53:35;0.60;99.90
32502;DHT22;18952;52.516;13.460;2023-03-07T06:56:02;0.60;99.90
32502;DHT22;18952;52.516;13.460;2023-03-07T06:58:32;0.60;99.90
32502;DHT22;18952;52.516;13.460;2023-03-07T07:00:59;0.70;99.90
32502;DHT22;18952;52.516;13.460;2023-03-07T07:03:26;0.70;99.90
32502;DHT22;18952;52.516;13.460;2023-03-07T07:05:53;0.80;99.90
32502;DHT22;18952;52.516;13.460;2023-03-07T07:08:20;0.80;99.90
32502;DHT22;18952;52.516;13.460;2023-03-07T07:10:47;0.80;99.90
32502;DHT22;18952;52.516;13.460;2023-03-07T07:13:13;0.80;99.90
32502;DHT22;18952;52.516;13.460;2023-03-07T07:15:40;0.90;99.90
32502;DHT22;18952;52.516;13.460;2023-03-07T07:18:10;0.90;99.90
32502;DHT22;18952;52.516;13.460;2023-03-07T07:20:37;0.90;99.90
32502;DHT22;18952;52.516;13.460;2023-03-07T07:23:04;0.90;99.90
32502;DHT22;18952;52.516;13.460;2023-03-07T07:25:31;1.00;99.90
32502;DHT22;18952;52.516;13.460;2023-03-07T07:27:58;1.00;99.90
32502;DHT22;18952;52.516;13.460;2023-03-07T07:30:24;1.10;99.90
32502;DHT22;18952;52.516;13.460;2023-03-07T07:32:51;1.10;99.90
32502;DHT22;18952;52.516;13.460;2023-03-07T07:35:18;1.10;99.90
32502;DHT22;18952;52.516;13.460;2023-03-07T07:37:48;1.10;99.90
32502;DHT22;18952;52.516;13.460;2023-03-07T07:40:15;1.20;99.90
32502;DHT22;18952;52.516;13.460;2023-03-07T07:42:44;1.20;99.90
32502;DHT22;18952;52.516;13.460;2023-03-07T07:45:14;1.30;99.90
32502;DHT22;18952;52.516;13.460;2023-03-07T07:47:41;1.30;99.90
32502;DHT22;18952;52.516;13.460;2023-03-07T07:50:09;1.40;99.90
32502;DHT22;18952;52.516;13.460;2023-03-07T07:52:38;1.50;99.90
32502;DHT22;18952;52.516;13.460;2023-03-07T07:55:05;1.50;99.90
32502;DHT22;18952;52.516;13.460;2023-03-07T07:57:32;1.50;99.90
32502;DHT22;18952;52.516;13.460;2023-03-07T07:59:59;1.50;99.90
32502;DHT22;18952;52.516;13.460;2023-03-07T08:02:26;1.50;99.90
32502;DHT22;18952;52.516;13.460;2023-03-07T08:04:52;1.50;99.90
32502;DHT22;18952;52.516;13.460;2023-03-07T08:07:22;1.50;99.90
32502;DHT22;18952;52.516;13.460;2023-03-07T08:09:48;1.60;99.90
32502;DHT22;18952;52.516;13.460;2023-03-07T08:12:15;1.60;99.90
32502;DHT22;18952;52.516;13.460;2023-03-07T08:14:42;1.60;99.90
32502;DHT22;18952;52.516;13.460;2023-03-07T08:17:09;1.60;99.90
32502;DHT22;18952;52.516;13.460;2023-03-07T08:19:38;1.70;99.90
32502;DHT22;18952;52.516;13.460;2023-03-07T08:22:04;1.70;99.90
32502;DHT22;18952;52.516;13.460;2023-03-07T08:24:34;1.80;99.90
32502;DHT22;18952;52.516;13.460;2023-03-07T08:27:07;1.80;99.90
32502;DHT22;18952;52.516;13.460;2023-03-07T08:29:34;1.80;99.90
32502;DHT22;18952;52.516;13.460;2023-03-07T08:32:01;1.80;99.90
32502;DHT22;18952;52.516;13.460;2023-03-07T08:34:28;1.70;99.90
32502;DHT22;18952;52.516;13.460;2023-03-07T08:36:55;1.70;99.90
32502;DHT22;18952;52.516;13.460;2023-03-07T08:39:21;1.70;99.90
32502;DHT22;18952;52.516;13.460;2023-03-07T08:41:48;1.70;99.90
32502;DHT22;18952;52.516;13.460;2023-03-07T08:44:15;1.70;99.90
32502;DHT22;18952;52.516;13.460;2023-03-07T08:46:42;1.80;99.90
32502;DHT22;18952;52.516;13.460;2023-03-07T08:49:09;1.90;99.90
32502;DHT22;18952;52.516;13.460;2023-03-07T08:51:37;1.90;99.90
32502;DHT22;18952;52.516;13.460;2023-03-07T08:54:05;2.10;99.90
32502;DHT22;18952;52.516;13.460;2023-03-07T08:56:32;2.10;99.90
32502;DHT22;18952;52.516;13.460;2023-03-07T08:58:59;2.10;99.90
32502;DHT22;18952;52.516;13.460;2023-03-07T09:01:27;2.20;99.90
32502;DHT22;18952;52.516;13.460;2023-03-07T09:03:53;2.30;99.90
32502;DHT22;18952;52.516;13.460;2023-03-07T09:06:33;2.30;99.90
32502;DHT22;18952;52.516;13.460;2023-03-07T09:09:07;2.40;99.90
32502;DHT22;18952;52.516;13.460;2023-03-07T09:11:37;2.50;99.90
32502;DHT22;18952;52.516;13.460;2023-03-07T09:14:15;2.60;99.90
32502;DHT22;18952;52.516;13.460;2023-03-07T09:16:43;2.70;99.90
32502;DHT22;18952;52.516;13.460;2023-03-07T09:19:13;2.80;99.90
32502;DHT22;18952;52.516;13.460;2023-03-07T09:21:40;2.80;99.90
32502;DHT22;18952;52.516;13.460;2023-03-07T09:24:09;2.90;99.90
32502;DHT22;18952;52.516;13.460;2023-03-07T09:26:47;3.00;99.90
32502;DHT22;18952;52.516;13.460;2023-03-07T09:29:18;3.00;99.90
32502;DHT22;18952;52.516;13.460;2023-03-07T09:31:45;3.00;99.90
32502;DHT22;18952;52.516;13.460;2023-03-07T09:34:15;3.00;99.90
32502;DHT22;18952;52.516;13.460;2023-03-07T09:36:51;2.90;99.90
32502;DHT22;18952;52.516;13.460;2023-03-07T09:39:19;2.90;99.90
32502;DHT22;18952;52.516;13.460;2023-03-07T09:44:52;2.90;99.90
32502;DHT22;18952;52.516;13.460;2023-03-07T09:49:58;3.00;99.90
32502;DHT22;18952;52.516;13.460;2023-03-07T09:52:32;3.00;99.90
32502;DHT22;18952;52.516;13.460;2023-03-07T09:55:16;3.20;99.90
32502;DHT22;18952;52.516;13.460;2023-03-07T09:57:50;3.20;99.90
32502;DHT22;18952;52.516;13.460;2023-03-07T10:00:29;3.30;99.90
32502;DHT22;18952;52.516;13.460;2023-03-07T10:06:07;3.40;99.90
32502;DHT22;18952;52.516;13.460;2023-03-07T10:08:36;3.40;99.90
32502;DHT22;18952;52.516;13.460;2023-03-07T10:16:48;3.70;99.90
32502;DHT22;18952;52.516;13.460;2023-03-07T10:19:19;3.80;99.90
32502;DHT22;18952;52.516;13.460;2023-03-07T10:27:24;3.70;99.90
32502;DHT22;18952;52.516;13.460;2023-03-07T10:29:53;3.70;99.90
32502;DHT22;18952;52.516;13.460;2023-03-07T10:32:44;3.70;99.90
32502;DHT22;18952;52.516;13.460;2023-03-07T10:35:16;3.60;99.90
32502;DHT22;18952;52.516;13.460;2023-03-07T10:38:17;3.60;99.90
32502;DHT22;18952;52.516;13.460;2023-03-07T10:43:27;3.50;99.90
32502;DHT22;18952;52.516;13.460;2023-03-07T10:46:12;3.40;99.90
32502;DHT22;18952;52.516;13.460;2023-03-07T10:49:07;3.30;99.90
32502;DHT22;18952;52.516;13.460;2023-03-07T10:52:02;3.00;99.90
32502;DHT22;18952;52.516;13.460;2023-03-07T10:54:35;2.80;99.90
32502;DHT22;18952;52.516;13.460;2023-03-07T10:59:33;2.50;99.90
32502;DHT22;18952;52.516;13.460;2023-03-07T11:02:17;2.50;99.90
32502;DHT22;18952;52.516;13.460;2023-03-07T11:04:52;2.40;99.90
32502;DHT22;18952;52.516;13.460;2023-03-07T11:07:31;2.50;99.90
32502;DHT22;18952;52.516;13.460;2023-03-07T11:10:01;2.40;99.90
32502;DHT22;18952;52.516;13.460;2023-03-07T11:12:47;2.40;99.90
32502;DHT22;18952;52.516;13.460;2023-03-07T11:15:20;2.40;99.90
32502;DHT22;18952;52.516;13.460;2023-03-07T11:17:47;2.40;99.90
32502;DHT22;18952;52.516;13.460;2023-03-07T11:20:24;2.50;99.90
32502;DHT22;18952;52.516;13.460;2023-03-07T11:23:21;2.50;99.90
32502;DHT22;18952;52.516;13.460;2023-03-07T11:25:49;2.60;99.90
32502;DHT22;18952;52.516;13.460;2023-03-07T11:28:35;2.60;99.90
32502;DHT22;18952;52.516;13.460;2023-03-07T11:34:36;2.60;99.90
32502;DHT22;18952;52.516;13.460;2023-03-07T11:40:22;2.50;99.90
32502;DHT22;18952;52.516;13.460;2023-03-07T11:43:01;2.50;99.90
32502;DHT22;18952;52.516;13.460;2023-03-07T11:45:36;2.50;99.90
32502;DHT22;18952;52.516;13.460;2023-03-07T11:51:00;2.60;99.90
32502;DHT22;18952;52.516;13.460;2023-03-07T11:53:56;2.60;99.90
32502;DHT22;18952;52.516;13.460;2023-03-07T11:56:32;2.70;99.90
32502;DHT22;18952;52.516;13.460;2023-03-07T12:02:00;2.70;99.90
32502;DHT22;18952;52.516;13.460;2023-03-07T12:07:24;2.60;99.90
32502;DHT22;18952;52.516;13.460;2023-03-07T12:15:49;2.50;99.90
32502;DHT22;18952;52.516;13.460;2023-03-07T12:18:31;2.40;99.90
32502;DHT22;18952;52.516;13.460;2023-03-07T12:23:47;2.30;99.90
32502;DHT22;18952;52.516;13.460;2023-03-07T12:26:22;2.30;99.90
32502;DHT22;18952;52.516;13.460;2023-03-07T12:29:08;2.30;99.90
32502;DHT22;18952;52.516;13.460;2023-03-07T12:31:44;2.30;99.90
32502;DHT22;18952;52.516;13.460;2023-03-07T12:34:50;2.30;99.90
32502;DHT22;18952;52.516;13.460;2023-03-07T12:37:24;2.20;99.90
32502;DHT22;18952;52.516;13.460;2023-03-07T12:43:22;2.00;99.90
32502;DHT22;18952;52.516;13.460;2023-03-07T12:46:56;1.80;99.90
32502;DHT22;18952;52.516;13.460;2023-03-07T12:51:44;1.70;99.90
32502;DHT22;18952;52.516;13.460;2023-03-07T12:54:22;1.80;99.90
32502;DHT22;18952;52.516;13.460;2023-03-07T12:57:16;1.80;99.90
32502;DHT22;18952;52.516;13.460;2023-03-07T12:59:44;1.80;99.90
32502;DHT22;18952;52.516;13.460;2023-03-07T13:02:20;1.80;99.90
32502;DHT22;18952;52.516;13.460;2023-03-07T13:04:50;1.80;99.90
32502;DHT22;18952;52.516;13.460;2023-03-07T13:07:25;1.70;99.90
32502;DHT22;18952;52.516;13.460;2023-03-07T13:09:54;1.80;99.90
32502;DHT22;18952;52.516;13.460;2023-03-07T13:26:30;1.50;99.90
32502;DHT22;18952;52.516;13.460;2023-03-07T13:39:37;1.50;99.90
32502;DHT22;18952;52.516;13.460;2023-03-07T13:42:48;1.50;99.90
32502;DHT22;18952;52.516;13.460;2023-03-07T14:05:27;1.40;99.90
32502;DHT22;18952;52.516;13.460;2023-03-07T14:08:40;1.30;99.90
32502;DHT22;18952;52.516;13.460;2023-03-07T14:28:49;1.50;99.90
32502;DHT22;18952;52.516;13.460;2023-03-07T14:43:24;1.60;99.90
32502;DHT22;18952;52.516;13.460;2023-03-07T14:56:48;1.80;99.90
32502;DHT22;18952;52.516;13.460;2023-03-07T15:18:48;1.90;99.90
32502;DHT22;18952;52.516;13.460;2023-03-07T15:22:37;1.80;99.90
32502;DHT22;18952;52.516;13.460;2023-03-07T15:29:05;1.90;99.90
32502;DHT22;18952;52.516;13.460;2023-03-07T15:32:04;1.90;99.90
32502;DHT22;18952;52.516;13.460;2023-03-07T15:34:45;1.80;99.90
32502;DHT22;18952;52.516;13.460;2023-03-07T15:37:33;1.80;99.90
32502;DHT22;18952;52.516;13.460;2023-03-07T15:42:52;1.80;99.90
32502;DHT22;18952;52.516;13.460;2023-03-07T15:48:13;1.80;99.90
32502;DHT22;18952;52.516;13.460;2023-03-07T15:50:53;1.80;99.90
32502;DHT22;18952;52.516;13.460;2023-03-07T15:53:37;1.90;99.90
32502;DHT22;18952;52.516;13.460;2023-03-07T15:56:30;1.80;99.90
32502;DHT22;18952;52.516;13.460;2023-03-07T15:59:16;1.80;99.90
32502;DHT22;18952;52.516;13.460;2023-03-07T16:01:46;1.80;99.90
32502;DHT22;18952;52.516;13.460;2023-03-07T16:07:01;1.80;99.90
32502;DHT22;18952;52.516;13.460;2023-03-07T16:09:28;1.90;99.90
32502;DHT22;18952;52.516;13.460;2023-03-07T16:12:20;1.80;99.90
32502;DHT22;18952;52.516;13.460;2023-03-07T16:15:31;1.90;99.90
32502;DHT22;18952;52.516;13.460;2023-03-07T16:18:25;1.90;99.90
32502;DHT22;18952;52.516;13.460;2023-03-07T16:20:54;1.90;99.90
32502;DHT22;18952;52.516;13.460;2023-03-07T16:23:35;1.80;99.90
32502;DHT22;18952;52.516;13.460;2023-03-07T16:26:05;1.80;99.90
32502;DHT22;18952;52.516;13.460;2023-03-07T16:28:42;1.80;99.90
32502;DHT22;18952;52.516;13.460;2023-03-07T16:31:33;1.90;99.90
32502;DHT22;18952;52.516;13.460;2023-03-07T16:37:44;1.80;99.90
32502;DHT22;18952;52.516;13.460;2023-03-07T16:40:14;1.80;99.90
32502;DHT22;18952;52.516;13.460;2023-03-07T16:42:57;1.80;99.90
32502;DHT22;18952;52.516;13.460;2023-03-07T16:45:30;1.80;99.90
32502;DHT22;18952;52.516;13.460;2023-03-07T16:48:27;1.70;99.90
32502;DHT22;18952;52.516;13.460;2023-03-07T16:51:14;1.70;99.90
32502;DHT22;18952;52.516;13.460;2023-03-07T16:53:44;1.70;99.90
32502;DHT22;18952;52.516;13.460;2023-03-07T16:56:27;1.70;99.90
32502;DHT22;18952;52.516;13.460;2023-03-07T16:58:56;1.70;99.90
32502;DHT22;18952;52.516;13.460;2023-03-07T17:01:23;1.70;99.90
32502;DHT22;18952;52.516;13.460;2023-03-07T17:03:50;1.70;99.90
32502;DHT22;18952;52.516;13.460;2023-03-07T17:06:17;1.70;99.90
32502;DHT22;18952;52.516;13.460;2023-03-07T17:08:49;1.70;99.90
32502;DHT22;18952;52.516;13.460;2023-03-07T17:11:22;1.70;99.90
32502;DHT22;18952;52.516;13.460;2023-03-07T17:13:54;1.70;99.90
32502;DHT22;18952;52.516;13.460;2023-03-07T17:16:26;1.70;99.90
32502;DHT22;18952;52.516;13.460;2023-03-07T17:18:53;1.70;99.90
32502;DHT22;18952;52.516;13.460;2023-03-07T17:21:21;1.70;99.90
32502;DHT22;18952;52.516;13.460;2023-03-07T17:23:49;1.60;99.90
32502;DHT22;18952;52.516;13.460;2023-03-07T17:26:20;1.60;99.90
32502;DHT22;18952;52.516;13.460;2023-03-07T17:28:52;1.70;99.90
32502;DHT22;18952;52.516;13.460;2023-03-07T17:31:19;1.70;99.90
32502;DHT22;18952;52.516;13.460;2023-03-07T17:33:46;1.70;99.90
32502;DHT22;18952;52.516;13.460;2023-03-07T17:36:13;1.70;99.90
32502;DHT22;18952;52.516;13.460;2023-03-07T17:38:40;1.60;99.90
32502;DHT22;18952;52.516;13.460;2023-03-07T17:41:07;1.60;99.90
32502;DHT22;18952;52.516;13.460;2023-03-07T17:43:33;1.60;99.90
32502;DHT22;18952;52.516;13.460;2023-03-07T17:46:00;1.60;99.90
32502;DHT22;18952;52.516;13.460;2023-03-07T17:48:33;1.60;99.90
32502;DHT22;18952;52.516;13.460;2023-03-07T17:51:20;1.70;99.90
32502;DHT22;18952;52.516;13.460;2023-03-07T17:54:02;1.60;99.90
32502;DHT22;18952;52.516;13.460;2023-03-07T17:56:28;1.60;99.90
32502;DHT22;18952;52.516;13.460;2023-03-07T17:58:58;1.60;99.90
32502;DHT22;18952;52.516;13.460;2023-03-07T18:01:27;1.60;99.90
32502;DHT22;18952;52.516;13.460;2023-03-07T18:03:56;1.50;99.90
32502;DHT22;18952;52.516;13.460;2023-03-07T18:06:24;1.50;99.90
32502;DHT22;18952;52.516;13.460;2023-03-07T18:08:51;1.50;99.90
32502;DHT22;18952;52.516;13.460;2023-03-07T18:11:18;1.60;99.90
32502;DHT22;18952;52.516;13.460;2023-03-07T18:13:46;1.60;99.90
32502;DHT22;18952;52.516;13.460;2023-03-07T18:16:13;1.60;99.90
32502;DHT22;18952;52.516;13.460;2023-03-07T18:18:41;1.50;99.90
32502;DHT22;18952;52.516;13.460;2023-03-07T18:21:24;1.50;99.90
32502;DHT22;18952;52.516;13.460;2023-03-07T18:23:51;1.50;99.90
32502;DHT22;18952;52.516;13.460;2023-03-07T18:26:19;1.50;99.90
32502;DHT22;18952;52.516;13.460;2023-03-07T18:28:48;1.50;99.90
32502;DHT22;18952;52.516;13.460;2023-03-07T18:31:16;1.40;99.90
32502;DHT22;18952;52.516;13.460;2023-03-07T18:33:43;1.40;99.90
32502;DHT22;18952;52.516;13.460;2023-03-07T18:36:12;1.40;99.90
32502;DHT22;18952;52.516;13.460;2023-03-07T18:38:40;1.40;99.90
32502;DHT22;18952;52.516;13.460;2023-03-07T18:41:12;1.40;99.90
32502;DHT22;18952;52.516;13.460;2023-03-07T18:43:40;1.40;99.90
32502;DHT22;18952;52.516;13.460;2023-03-07T18:46:10;1.50;99.90
32502;DHT22;18952;52.516;13.460;2023-03-07T18:48:37;1.40;99.90
32502;DHT22;18952;52.516;13.460;2023-03-07T18:51:07;1.40;99.90
32502;DHT22;18952;52.516;13.460;2023-03-07T18:53:35;1.40;99.90
32502;DHT22;18952;52.516;13.460;2023-03-07T18:56:13;1.40;99.90
32502;DHT22;18952;52.516;13.460;2023-03-07T18:58:41;1.40;99.90
32502;DHT22;18952;52.516;13.460;2023-03-07T19:01:23;1.30;99.90